createdAt,value
2019-03-01T00:00:07.741Z,6.40
2019-03-01T00:01:07.795Z,8.20
2019-03-01T00:02:07.850Z,10.60
2019-03-01T00:03:07.904Z,7.10
2019-03-01T00:04:07.964Z,7.10
2019-03-01T00:05:08.025Z,5.50
2019-03-01T00:06:08.072Z,7.40
2019-03-01T00:07:08.124Z,10.00
2019-03-01T00:08:08.182Z,9.70
2019-03-01T00:09:08.236Z,6.10
2019-03-01T00:10:08.293Z,8.80
2019-03-01T00:11:08.345Z,8.00
2019-03-01T00:12:08.400Z,7.70
2019-03-01T00:13:08.457Z,8.90
2019-03-01T00:14:08.512Z,6.70
2019-03-01T00:15:08.567Z,7.80
2019-03-01T00:16:08.621Z,7.60
2019-03-01T00:17:08.675Z,5.80
2019-03-01T00:18:08.732Z,7.90
2019-03-01T00:19:08.786Z,7.60
2019-03-01T00:20:08.841Z,9.40
2019-03-01T00:21:08.896Z,8.00
2019-03-01T00:22:08.951Z,7.80
2019-03-01T00:23:09.005Z,5.90
2019-03-01T00:24:09.061Z,6.70
2019-03-01T00:25:09.117Z,7.10
2019-03-01T00:26:09.171Z,5.80
2019-03-01T00:27:09.225Z,6.60
2019-03-01T00:28:09.279Z,6.10
2019-03-01T00:29:09.334Z,7.50
2019-03-01T00:30:09.391Z,6.40
2019-03-01T00:31:09.443Z,6.00
2019-03-01T00:32:09.502Z,7.10
2019-03-01T00:33:09.555Z,6.80
2019-03-01T00:34:09.610Z,7.30
2019-03-01T00:35:09.665Z,9.00
2019-03-01T00:36:09.718Z,5.50
2019-03-01T00:37:09.775Z,7.50
2019-03-01T00:38:09.830Z,8.90
2019-03-01T00:39:09.882Z,6.80
2019-03-01T00:40:09.941Z,7.00
2019-03-01T00:41:09.994Z,6.50
2019-03-01T00:42:10.048Z,7.40
2019-03-01T00:43:10.102Z,7.60
2019-03-01T00:44:10.158Z,8.70
2019-03-01T00:45:10.215Z,8.40
2019-03-01T00:46:10.269Z,6.00
2019-03-01T00:47:10.322Z,6.30
2019-03-01T00:48:10.378Z,7.00
2019-03-01T00:49:10.434Z,7.30
2019-03-01T00:50:10.491Z,7.60
2019-03-01T00:51:10.542Z,10.10
2019-03-01T00:52:10.597Z,6.10
2019-03-01T00:53:10.654Z,4.60
2019-03-01T00:54:10.709Z,5.80
2019-03-01T00:55:10.761Z,6.50
2019-03-01T00:56:10.815Z,6.30
2019-03-01T00:57:10.871Z,8.20
2019-03-01T00:58:10.925Z,4.70
2019-03-01T00:59:10.981Z,5.40
2019-03-01T01:00:11.034Z,5.30
2019-03-01T01:01:11.091Z,7.50
2019-03-01T01:02:11.145Z,8.40
2019-03-01T01:03:11.201Z,9.40
2019-03-01T01:04:11.255Z,7.20
2019-03-01T01:05:11.311Z,7.40
2019-03-01T01:06:11.365Z,7.10
2019-03-01T01:07:11.421Z,7.80
2019-03-01T01:08:11.475Z,5.00
2019-03-01T01:09:11.529Z,8.10
2019-03-01T01:10:11.587Z,4.50
2019-03-01T01:11:11.639Z,8.50
2019-03-01T01:12:11.694Z,5.60
2019-03-01T01:13:11.750Z,8.40
2019-03-01T01:14:11.805Z,6.60
2019-03-01T01:15:11.863Z,5.20
2019-03-01T01:16:11.915Z,4.50
2019-03-01T01:17:11.979Z,5.50
2019-03-01T01:18:12.024Z,5.60
2019-03-01T01:19:12.079Z,7.10
2019-03-01T01:20:12.133Z,5.30
2019-03-01T01:21:12.190Z,4.00
2019-03-01T01:22:12.244Z,4.70
2019-03-01T01:23:12.299Z,6.70
2019-03-01T01:24:12.354Z,6.60
2019-03-01T01:25:12.411Z,5.50
2019-03-01T01:26:12.464Z,4.80
2019-03-01T01:27:12.520Z,6.70
2019-03-01T01:28:12.573Z,4.70
2019-03-01T01:29:12.629Z,6.90
2019-03-01T01:30:12.688Z,8.30
2019-03-01T01:31:12.737Z,4.90
2019-03-01T01:32:12.794Z,6.60
2019-03-01T01:33:12.848Z,6.40
2019-03-01T01:34:12.905Z,5.10
2019-03-01T01:35:12.958Z,6.10
2019-03-01T01:36:13.013Z,8.10
2019-03-01T01:37:13.071Z,4.40
2019-03-01T01:38:13.126Z,5.50
2019-03-01T01:39:13.179Z,4.10
2019-03-01T01:40:13.234Z,5.70
2019-03-01T01:41:13.289Z,3.30
2019-03-01T01:42:13.345Z,7.50
2019-03-01T01:43:13.399Z,4.00
2019-03-01T01:44:13.453Z,4.10
2019-03-01T01:45:13.508Z,5.30
2019-03-01T01:46:13.563Z,5.20
2019-03-01T01:47:13.619Z,6.20
2019-03-01T01:48:13.721Z,3.60
2019-03-01T01:49:13.729Z,4.90
2019-03-01T01:50:13.784Z,5.10
2019-03-01T01:51:13.839Z,3.40
2019-03-01T01:52:13.894Z,4.20
2019-03-01T01:53:13.948Z,3.30
2019-03-01T01:54:14.004Z,4.60
2019-03-01T01:55:14.058Z,2.90
2019-03-01T01:56:14.114Z,7.50
2019-03-01T01:57:14.169Z,4.00
2019-03-01T01:58:14.224Z,3.70
2019-03-01T01:59:14.279Z,5.70
2019-03-01T02:00:14.333Z,3.70
2019-03-01T02:01:14.393Z,4.10
2019-03-01T02:02:14.446Z,5.50
2019-03-01T02:03:14.499Z,5.00
2019-03-01T02:04:14.554Z,3.90
2019-03-01T02:05:14.613Z,5.60
2019-03-01T02:06:14.665Z,4.20
2019-03-01T02:07:14.724Z,3.60
2019-03-01T02:08:14.775Z,5.10
2019-03-01T02:09:14.831Z,3.50
2019-03-01T02:10:14.885Z,4.80
2019-03-01T02:11:14.943Z,6.10
2019-03-01T02:12:14.994Z,5.10
2019-03-01T02:13:15.053Z,3.50
2019-03-01T02:14:15.105Z,3.50
2019-03-01T02:15:15.159Z,5.30
2019-03-01T02:16:15.237Z,4.30
2019-03-01T02:17:15.270Z,7.80
2019-03-01T02:18:15.324Z,3.80
2019-03-01T02:19:15.379Z,4.50
2019-03-01T02:20:15.435Z,3.00
2019-03-01T02:21:15.490Z,3.30
2019-03-01T02:22:15.547Z,3.30
2019-03-01T02:23:15.600Z,4.20
2019-03-01T02:24:15.653Z,3.90
2019-03-01T02:25:15.711Z,4.70
2019-03-01T02:26:15.764Z,7.00
2019-03-01T02:27:15.819Z,3.50
2019-03-01T02:28:15.873Z,5.10
2019-03-01T02:29:15.930Z,3.80
2019-03-01T02:30:15.985Z,4.30
2019-03-01T02:31:16.039Z,4.90
2019-03-01T02:32:16.098Z,4.00
2019-03-01T02:33:16.153Z,3.40
2019-03-01T02:34:16.204Z,5.60
2019-03-01T02:35:16.260Z,6.40
2019-03-01T02:36:16.327Z,5.30
2019-03-01T02:37:16.377Z,3.90
2019-03-01T02:38:16.423Z,4.50
2019-03-01T02:39:16.482Z,6.20
2019-03-01T02:40:16.535Z,3.80
2019-03-01T02:41:16.597Z,5.40
2019-03-01T02:42:16.659Z,5.80
2019-03-01T02:43:16.701Z,5.20
2019-03-01T02:44:16.754Z,5.20
2019-03-01T02:45:16.823Z,5.50
2019-03-01T02:46:16.869Z,6.00
2019-03-01T02:47:16.920Z,4.00
2019-03-01T02:48:16.973Z,4.30
2019-03-01T02:49:17.029Z,4.10
2019-03-01T02:50:17.082Z,6.00
2019-03-01T02:51:17.138Z,4.00
2019-03-01T02:52:17.192Z,3.90
2019-03-01T02:53:17.246Z,6.80
2019-03-01T02:54:17.308Z,5.30
2019-03-01T02:55:17.354Z,5.90
2019-03-01T02:56:17.411Z,2.80
2019-03-01T02:57:17.465Z,5.40
2019-03-01T02:58:17.523Z,5.10
2019-03-01T02:59:17.577Z,4.40
2019-03-01T03:00:17.634Z,5.70
2019-03-01T03:01:17.686Z,6.40
2019-03-01T03:02:17.743Z,4.20
2019-03-01T03:03:17.793Z,5.60
2019-03-01T03:04:17.846Z,5.10
2019-03-01T03:05:17.904Z,3.80
2019-03-01T03:06:17.961Z,5.50
2019-03-01T03:07:18.014Z,5.30
2019-03-01T03:08:18.068Z,7.00
2019-03-01T03:09:18.122Z,4.20
2019-03-01T03:10:18.181Z,6.60
2019-03-01T03:11:18.242Z,5.80
2019-03-01T03:12:18.286Z,5.60
2019-03-01T03:13:18.341Z,5.60
2019-03-01T03:14:18.395Z,3.00
2019-03-01T03:15:18.449Z,5.00
2019-03-01T03:16:18.507Z,5.50
2019-03-01T03:17:18.558Z,4.60
2019-03-01T03:18:18.617Z,3.50
2019-03-01T03:19:18.669Z,7.40
2019-03-01T03:20:18.726Z,8.00
2019-03-01T03:21:18.778Z,5.80
2019-03-01T03:22:18.838Z,6.00
2019-03-01T03:23:18.887Z,4.30
2019-03-01T03:24:18.950Z,4.60
2019-03-01T03:25:18.997Z,4.10
2019-03-01T03:26:19.051Z,5.20
2019-03-01T03:27:19.107Z,5.10
2019-03-01T03:28:19.161Z,5.70
2019-03-01T03:29:19.219Z,4.70
2019-03-01T03:30:19.270Z,4.30
2019-03-01T03:31:19.345Z,6.90
2019-03-01T03:32:19.839Z,5.40
2019-03-01T03:33:19.436Z,5.10
2019-03-01T03:34:19.963Z,4.70
2019-03-01T03:35:19.983Z,7.70
2019-03-01T03:36:19.592Z,5.80
2019-03-01T03:37:19.667Z,4.70
2019-03-01T03:38:19.706Z,3.90
2019-03-01T03:39:20.289Z,5.50
2019-03-01T03:40:20.275Z,6.20
2019-03-01T03:41:20.265Z,6.50
2019-03-01T03:42:19.922Z,4.20
2019-03-01T03:43:22.724Z,5.40
2019-03-01T03:44:20.034Z,3.50
2019-03-01T03:45:20.085Z,5.10
2019-03-01T03:46:20.139Z,5.80
2019-03-01T03:47:20.193Z,4.80
2019-03-01T03:48:20.248Z,4.90
2019-03-01T03:49:20.311Z,3.60
2019-03-01T03:50:20.363Z,3.90
2019-03-01T03:51:20.421Z,7.30
2019-03-01T03:52:20.465Z,4.30
2019-03-01T03:53:20.521Z,7.90
2019-03-01T03:54:20.575Z,4.10
2019-03-01T03:55:20.628Z,4.70
2019-03-01T03:56:20.686Z,4.70
2019-03-01T03:57:20.738Z,5.50
2019-03-01T03:58:20.792Z,5.70
2019-03-01T03:59:20.847Z,4.80
2019-03-01T04:00:20.919Z,4.40
2019-03-01T04:01:20.967Z,4.30
2019-03-01T04:02:21.011Z,4.10
2019-03-01T04:03:21.118Z,8.60
2019-03-01T04:04:21.118Z,5.70
2019-03-01T04:05:21.172Z,4.20
2019-03-01T04:06:21.232Z,4.90
2019-03-01T04:07:21.285Z,4.30
2019-03-01T04:08:21.347Z,5.70
2019-03-01T04:09:21.391Z,4.70
2019-03-01T04:10:21.448Z,5.60
2019-03-01T04:11:21.500Z,6.50
2019-03-01T04:12:21.556Z,6.90
2019-03-01T04:13:21.623Z,5.60
2019-03-01T04:14:21.666Z,6.20
2019-03-01T04:15:21.720Z,4.70
2019-03-01T04:16:21.777Z,5.00
2019-03-01T04:17:21.849Z,3.60
2019-03-01T04:18:21.884Z,4.90
2019-03-01T04:19:21.937Z,5.80
2019-03-01T04:20:21.997Z,7.10
2019-03-01T04:21:22.047Z,5.70
2019-03-01T04:22:22.101Z,6.10
2019-03-01T04:23:22.158Z,5.70
2019-03-01T04:24:22.210Z,5.40
2019-03-01T04:25:22.280Z,5.90
2019-03-01T04:26:22.320Z,4.10
2019-03-01T04:27:22.374Z,4.50
2019-03-01T04:28:22.432Z,5.40
2019-03-01T04:29:22.492Z,4.90
2019-03-01T04:30:22.537Z,5.30
2019-03-01T04:31:22.595Z,7.30
2019-03-01T04:32:22.645Z,7.30
2019-03-01T04:33:22.701Z,4.40
2019-03-01T04:34:22.754Z,4.90
2019-03-01T04:35:22.808Z,6.90
2019-03-01T04:36:22.863Z,7.80
2019-03-01T04:37:22.920Z,6.50
2019-03-01T04:38:22.973Z,4.10
2019-03-01T04:39:23.032Z,5.80
2019-03-01T04:40:23.082Z,7.90
2019-03-01T04:41:23.386Z,5.10
2019-03-01T04:42:23.191Z,6.40
2019-03-01T04:43:23.248Z,6.30
2019-03-01T04:44:23.300Z,6.90
2019-03-01T04:45:23.353Z,5.80
2019-03-01T04:46:23.409Z,8.10
2019-03-01T04:47:23.462Z,4.20
2019-03-01T04:48:23.518Z,7.90
2019-03-01T04:49:23.574Z,5.10
2019-03-01T04:50:23.626Z,7.00
2019-03-01T04:51:23.681Z,4.90
2019-03-01T04:52:23.738Z,9.80
2019-03-01T04:53:23.790Z,6.80
2019-03-01T04:54:23.846Z,6.30
2019-03-01T04:55:23.899Z,4.50
2019-03-01T04:56:23.954Z,6.30
2019-03-01T04:57:24.008Z,5.80
2019-03-01T04:58:24.069Z,7.70
2019-03-01T04:59:24.120Z,5.90
2019-03-01T05:00:24.206Z,7.40
2019-03-01T05:01:24.228Z,5.00
2019-03-01T05:02:24.281Z,7.20
2019-03-01T05:03:24.335Z,7.50
2019-03-01T05:04:24.390Z,6.50
2019-03-01T05:05:24.444Z,4.50
2019-03-01T05:06:24.499Z,6.80
2019-03-01T05:07:24.553Z,6.20
2019-03-01T05:08:24.608Z,5.80
2019-03-01T05:09:24.681Z,5.20
2019-03-01T05:10:24.722Z,6.10
2019-03-01T05:11:24.772Z,6.20
2019-03-01T05:12:24.828Z,3.80
2019-03-01T05:13:24.880Z,6.00
2019-03-01T05:14:24.973Z,7.10
2019-03-01T05:15:24.990Z,5.00
2019-03-01T05:16:25.045Z,5.80
2019-03-01T05:17:25.098Z,3.90
2019-03-01T05:18:25.160Z,7.70
2019-03-01T05:19:25.208Z,4.80
2019-03-01T05:20:25.261Z,4.70
2019-03-01T05:21:25.316Z,6.00
2019-03-01T05:22:25.370Z,4.50
2019-03-01T05:23:25.431Z,7.20
2019-03-01T05:24:25.480Z,6.40
2019-03-01T05:25:25.536Z,5.00
2019-03-01T05:26:25.589Z,4.70
2019-03-01T05:27:25.643Z,5.50
2019-03-01T05:28:25.697Z,6.50
2019-03-01T05:29:25.752Z,6.50
2019-03-01T05:30:25.807Z,6.30
2019-03-01T05:31:25.861Z,4.60
2019-03-01T05:32:25.915Z,6.00
2019-03-01T05:33:25.969Z,6.50
2019-03-01T05:34:26.031Z,6.50
2019-03-01T05:35:26.080Z,5.00
2019-03-01T05:36:26.134Z,5.90
2019-03-01T05:37:26.187Z,6.30
2019-03-01T05:38:26.242Z,6.50
2019-03-01T05:39:26.295Z,6.30
2019-03-01T05:40:26.351Z,7.00
2019-03-01T05:41:26.409Z,5.80
2019-03-01T05:42:26.460Z,7.90
2019-03-01T05:43:26.513Z,5.30
2019-03-01T05:44:26.569Z,7.30
2019-03-01T05:45:26.623Z,6.10
2019-03-01T05:46:26.681Z,7.20
2019-03-01T05:47:26.731Z,7.30
2019-03-01T05:48:26.786Z,5.50
2019-03-01T05:49:26.840Z,5.60
2019-03-01T05:50:26.896Z,8.00
2019-03-01T05:51:26.949Z,6.60
2019-03-01T05:52:27.003Z,6.50
2019-03-01T05:53:27.062Z,5.80
2019-03-01T05:54:27.118Z,5.10
2019-03-01T05:55:27.167Z,7.00
2019-03-01T05:56:27.224Z,8.70
2019-03-01T05:57:27.274Z,6.20
2019-03-01T05:58:27.329Z,6.30
2019-03-01T05:59:27.383Z,6.40
2019-03-01T06:00:27.441Z,6.20
2019-03-01T06:01:27.492Z,6.20
2019-03-01T06:02:27.549Z,7.30
2019-03-01T06:03:27.608Z,5.90
2019-03-01T06:04:27.655Z,6.30
2019-03-01T06:05:27.711Z,5.60
2019-03-01T06:06:27.765Z,5.30
2019-03-01T06:07:27.819Z,6.10
2019-03-01T06:08:27.874Z,5.20
2019-03-01T06:09:27.928Z,7.30
2019-03-01T06:10:27.984Z,6.20
2019-03-01T06:11:28.037Z,5.90
2019-03-01T06:12:28.090Z,7.20
2019-03-01T06:13:28.145Z,5.20
2019-03-01T06:14:28.200Z,5.20
2019-03-01T06:15:28.254Z,7.30
2019-03-01T06:16:28.308Z,6.80
2019-03-01T06:17:28.363Z,7.20
2019-03-01T06:18:28.417Z,4.80
2019-03-01T06:19:28.471Z,5.50
2019-03-01T06:20:28.527Z,4.50
2019-03-01T06:21:28.581Z,5.90
2019-03-01T06:22:28.636Z,6.70
2019-03-01T06:23:28.690Z,5.40
2019-03-01T06:24:28.743Z,6.60
2019-03-01T06:25:28.807Z,4.40
2019-03-01T06:26:28.855Z,5.90
2019-03-01T06:27:28.909Z,7.40
2019-03-01T06:28:28.962Z,7.40
2019-03-01T06:29:29.017Z,5.00
2019-03-01T06:30:29.070Z,5.40
2019-03-01T06:31:29.126Z,7.40
2019-03-01T06:32:29.207Z,3.50
2019-03-01T06:33:29.236Z,6.00
2019-03-01T06:34:29.289Z,6.40
2019-03-01T06:35:29.363Z,8.10
2019-03-01T06:36:29.398Z,4.90
2019-03-01T06:37:29.451Z,4.30
2019-03-01T06:38:29.505Z,4.90
2019-03-01T06:39:29.561Z,4.40
2019-03-01T06:40:29.617Z,5.90
2019-03-01T06:41:29.670Z,7.00
2019-03-01T06:42:29.724Z,4.40
2019-03-01T06:43:29.779Z,7.40
2019-03-01T06:44:29.833Z,6.30
2019-03-01T06:45:29.889Z,5.70
2019-03-01T06:46:29.942Z,7.60
2019-03-01T06:47:29.998Z,5.10
2019-03-01T06:48:30.052Z,4.70
2019-03-01T06:49:30.106Z,5.40
2019-03-01T06:50:30.160Z,5.60
2019-03-01T06:51:30.216Z,4.80
2019-03-01T06:52:30.270Z,6.30
2019-03-01T06:53:30.325Z,5.20
2019-03-01T06:54:30.380Z,4.80
2019-03-01T06:55:30.433Z,6.10
2019-03-01T06:56:30.487Z,3.40
2019-03-01T06:57:30.543Z,5.20
2019-03-01T06:58:30.596Z,4.60
2019-03-01T06:59:30.651Z,3.70
2019-03-01T07:00:30.706Z,4.80
2019-03-01T07:01:30.760Z,6.60
2019-03-01T07:02:30.816Z,5.10
2019-03-01T07:03:30.870Z,4.80
2019-03-01T07:04:30.924Z,5.00
2019-03-01T07:05:30.981Z,5.20
2019-03-01T07:06:31.034Z,5.00
2019-03-01T07:07:31.091Z,3.40
2019-03-01T07:08:31.144Z,3.80
2019-03-01T07:09:31.199Z,3.80
2019-03-01T07:10:31.253Z,3.70
2019-03-01T07:11:31.307Z,5.30
2019-03-01T07:12:31.369Z,5.70
2019-03-01T07:13:31.418Z,5.50
2019-03-01T07:14:31.484Z,5.10
2019-03-01T07:15:31.527Z,5.10
2019-03-01T07:16:31.585Z,5.10
2019-03-01T07:17:31.638Z,6.40
2019-03-01T07:18:31.693Z,3.80
2019-03-01T07:19:31.761Z,6.60
2019-03-01T07:20:31.802Z,4.50
2019-03-01T07:21:31.860Z,5.40
2019-03-01T07:22:31.912Z,7.20
2019-03-01T07:23:36.788Z,5.10
2019-03-01T07:24:32.586Z,4.90
2019-03-01T07:25:32.077Z,6.00
2019-03-01T07:26:32.133Z,5.60
2019-03-01T07:27:32.187Z,7.10
2019-03-01T07:28:32.243Z,4.70
2019-03-01T07:29:32.300Z,4.40
2019-03-01T07:30:32.354Z,4.00
2019-03-01T07:31:32.409Z,4.00
2019-03-01T07:32:32.462Z,7.80
2019-03-01T07:33:32.518Z,4.20
2019-03-01T07:34:32.574Z,4.30
2019-03-01T07:35:32.627Z,5.00
2019-03-01T07:36:32.684Z,5.40
2019-03-01T07:37:32.740Z,4.40
2019-03-01T07:38:32.795Z,6.00
2019-03-01T07:39:32.849Z,5.40
2019-03-01T07:40:32.905Z,4.80
2019-03-01T07:41:32.962Z,4.60
2019-03-01T07:42:33.017Z,4.70
2019-03-01T07:43:33.071Z,4.00
2019-03-01T07:44:33.127Z,4.60
2019-03-01T07:45:33.183Z,4.00
2019-03-01T07:46:33.239Z,5.10
2019-03-01T07:47:34.204Z,4.30
2019-03-01T07:48:33.349Z,5.80
2019-03-01T07:49:33.406Z,5.10
2019-03-01T07:50:33.460Z,4.00
2019-03-01T07:51:35.804Z,4.30
2019-03-01T07:52:33.577Z,3.50
2019-03-01T07:53:36.118Z,4.10
2019-03-01T07:54:33.683Z,3.10
2019-03-01T07:55:33.739Z,4.80
2019-03-01T07:56:36.897Z,4.00
2019-03-01T07:57:33.850Z,3.50
2019-03-01T07:58:33.907Z,3.60
2019-03-01T07:59:38.100Z,4.10
2019-03-01T08:00:34.027Z,5.80
2019-03-01T08:01:34.073Z,2.90
2019-03-01T08:02:35.920Z,3.90
2019-03-01T08:03:34.185Z,3.60
2019-03-01T08:04:34.244Z,3.20
2019-03-01T08:05:35.536Z,5.60
2019-03-01T08:06:34.355Z,4.00
2019-03-01T08:07:34.409Z,6.60
2019-03-01T08:08:34.863Z,3.20
2019-03-01T08:09:36.239Z,4.70
2019-03-01T08:10:34.582Z,3.90
2019-03-01T08:11:34.633Z,3.10
2019-03-01T08:12:34.689Z,2.70
2019-03-01T08:13:34.746Z,3.50
2019-03-01T08:14:34.802Z,8.50
2019-03-01T08:15:34.862Z,4.30
2019-03-01T08:16:34.913Z,5.80
2019-03-01T08:17:34.970Z,4.70
2019-03-01T08:18:35.028Z,3.00
2019-03-01T08:19:35.082Z,3.80
2019-03-01T08:20:35.137Z,3.60
2019-03-01T08:21:35.208Z,3.60
2019-03-01T08:22:44.911Z,4.10
2019-03-01T08:23:35.992Z,3.10
2019-03-01T08:24:35.363Z,4.30
2019-03-01T08:25:35.418Z,6.30
2019-03-01T08:26:35.473Z,3.90
2019-03-01T08:27:35.529Z,2.90
2019-03-01T08:28:35.585Z,4.20
2019-03-01T08:29:35.643Z,3.00
2019-03-01T08:30:35.781Z,3.20
2019-03-01T08:31:35.761Z,3.70
2019-03-01T08:32:35.808Z,2.70
2019-03-01T08:33:35.863Z,4.70
2019-03-01T08:34:35.926Z,3.50
2019-03-01T08:35:35.975Z,3.20
2019-03-01T08:36:38.576Z,2.30
2019-03-01T08:37:36.087Z,2.30
2019-03-01T08:38:36.143Z,2.70
2019-03-01T08:39:36.592Z,3.80
2019-03-01T08:40:36.255Z,3.20
2019-03-01T08:41:36.310Z,2.50
2019-03-01T08:42:37.334Z,4.50
2019-03-01T08:43:36.422Z,2.60
2019-03-01T08:44:36.481Z,3.40
2019-03-01T08:45:36.535Z,2.80
2019-03-01T08:46:36.595Z,3.20
2019-03-01T08:47:36.696Z,4.20
2019-03-01T08:48:36.702Z,3.00
2019-03-01T08:49:36.759Z,2.30
2019-03-01T08:50:36.814Z,1.80
2019-03-01T08:51:36.873Z,2.30
2019-03-01T08:52:37.210Z,4.10
2019-03-01T08:53:36.982Z,5.20
2019-03-01T08:54:37.039Z,2.10
2019-03-01T08:55:38.912Z,2.50
2019-03-01T08:56:37.152Z,2.40
2019-03-01T08:57:44.003Z,3.10
2019-03-01T08:58:37.646Z,1.90
2019-03-01T08:59:37.317Z,3.10
2019-03-01T09:00:37.374Z,3.00
2019-03-01T09:01:37.431Z,2.90
2019-03-01T09:02:37.488Z,3.10
2019-03-01T09:03:37.542Z,2.50
2019-03-01T09:04:38.152Z,3.50
2019-03-01T09:05:37.657Z,2.50
2019-03-01T09:06:37.711Z,3.30
2019-03-01T09:07:37.767Z,2.90
2019-03-01T09:08:37.825Z,3.10
2019-03-01T09:09:37.881Z,2.00
2019-03-01T09:10:37.937Z,4.20
2019-03-01T09:11:37.993Z,3.30
2019-03-01T09:12:38.051Z,3.90
2019-03-01T09:13:38.109Z,5.40
2019-03-01T09:14:38.165Z,3.90
2019-03-01T09:15:38.219Z,3.60
2019-03-01T09:16:38.276Z,4.30
2019-03-01T09:17:38.333Z,3.40
2019-03-01T09:18:38.390Z,3.10
2019-03-01T09:19:38.446Z,4.60
2019-03-01T09:20:38.726Z,4.60
2019-03-01T09:21:39.558Z,5.50
2019-03-01T09:22:38.616Z,3.50
2019-03-01T09:23:39.642Z,3.90
2019-03-01T09:24:38.728Z,4.10
2019-03-01T09:25:41.362Z,4.70
2019-03-01T09:26:38.841Z,5.40
2019-03-01T09:27:38.897Z,4.30
2019-03-01T09:28:39.860Z,4.60
2019-03-01T09:29:41.909Z,7.30
2019-03-01T09:30:40.318Z,5.30
2019-03-01T09:31:39.124Z,4.70
2019-03-01T09:32:39.180Z,4.70
2019-03-01T09:33:39.235Z,5.10
2019-03-01T09:34:39.878Z,6.30
2019-03-01T09:35:39.672Z,7.70
2019-03-01T09:36:39.407Z,7.60
2019-03-01T09:37:39.465Z,6.10
2019-03-01T09:38:42.723Z,6.20
2019-03-01T09:39:39.575Z,7.60
2019-03-01T09:40:39.633Z,8.80
2019-03-01T09:41:40.585Z,8.00
2019-03-01T09:42:39.745Z,7.70
2019-03-01T09:43:39.800Z,9.70
2019-03-01T09:44:39.858Z,7.50
2019-03-01T09:45:39.914Z,10.20
2019-03-01T09:46:39.972Z,7.40
2019-03-01T09:47:40.031Z,9.70
2019-03-01T09:48:40.084Z,7.90
2019-03-01T09:49:40.141Z,9.50
2019-03-01T09:50:40.198Z,7.20
2019-03-01T09:51:43.516Z,8.60
2019-03-01T09:52:40.309Z,6.10
2019-03-01T09:53:40.364Z,10.30
2019-03-01T09:54:40.435Z,8.60
2019-03-01T09:55:40.476Z,9.40
2019-03-01T09:56:40.535Z,7.00
2019-03-01T09:57:40.590Z,10.40
2019-03-01T09:58:40.648Z,8.90
2019-03-01T09:59:40.703Z,11.20
2019-03-01T10:00:40.762Z,9.40
2019-03-01T10:01:40.818Z,11.60
2019-03-01T10:02:40.875Z,11.60
2019-03-01T10:03:40.927Z,11.10
2019-03-01T10:04:40.984Z,9.20
2019-03-01T10:05:41.662Z,11.10
2019-03-01T10:06:41.096Z,9.90
2019-03-01T10:07:41.152Z,10.20
2019-03-01T10:08:41.207Z,13.90
2019-03-01T10:09:41.263Z,13.70
2019-03-01T10:10:41.320Z,12.90
2019-03-01T10:11:41.380Z,12.50
2019-03-01T10:12:41.431Z,12.10
2019-03-01T10:13:41.487Z,9.10
2019-03-01T10:14:41.546Z,8.50
2019-03-01T10:15:41.599Z,12.50
2019-03-01T10:16:41.654Z,11.10
2019-03-01T10:17:41.711Z,12.90
2019-03-01T10:18:41.766Z,12.50
2019-03-01T10:19:41.823Z,12.90
2019-03-01T10:20:41.879Z,13.10
2019-03-01T10:21:41.934Z,13.10
2019-03-01T10:22:41.991Z,13.60
2019-03-01T10:23:42.047Z,13.80
2019-03-01T10:24:42.103Z,12.10
2019-03-01T10:25:42.158Z,12.10
2019-03-01T10:26:42.214Z,14.40
2019-03-01T10:27:42.269Z,14.30
2019-03-01T10:28:42.325Z,13.00
2019-03-01T10:29:42.383Z,15.70
2019-03-01T10:30:42.436Z,12.80
2019-03-01T10:31:42.494Z,14.80
2019-03-01T10:32:42.547Z,14.70
2019-03-01T10:33:42.605Z,20.80
2019-03-01T10:34:42.659Z,14.80
2019-03-01T10:35:42.722Z,12.40
2019-03-01T10:36:42.771Z,12.90
2019-03-01T10:37:42.827Z,14.40
2019-03-01T10:38:42.884Z,16.00
2019-03-01T10:39:42.938Z,18.30
2019-03-01T10:40:42.995Z,16.20
2019-03-01T10:41:43.051Z,17.60
2019-03-01T10:42:43.107Z,14.70
2019-03-01T10:43:43.165Z,17.30
2019-03-01T10:44:43.219Z,16.90
2019-03-01T10:45:43.275Z,16.30
2019-03-01T10:46:43.330Z,16.00
2019-03-01T10:47:43.441Z,15.70
2019-03-01T10:48:43.442Z,17.20
2019-03-01T10:49:43.498Z,15.70
2019-03-01T10:50:43.557Z,15.90
2019-03-01T10:51:43.610Z,19.90
2019-03-01T10:52:43.666Z,15.00
2019-03-01T10:53:43.723Z,17.00
2019-03-01T10:54:43.779Z,17.40
2019-03-01T10:55:43.834Z,15.70
2019-03-01T10:56:43.891Z,17.90
2019-03-01T10:57:43.949Z,15.50
2019-03-01T10:58:44.002Z,18.00
2019-03-01T10:59:44.059Z,20.60
2019-03-01T11:00:44.121Z,15.10
2019-03-01T11:01:44.171Z,19.80
2019-03-01T11:02:44.228Z,21.50
2019-03-01T11:03:44.284Z,19.20
2019-03-01T11:04:44.339Z,25.20
2019-03-01T11:05:44.399Z,21.70
2019-03-01T11:06:44.453Z,19.30
2019-03-01T11:07:44.510Z,26.30
2019-03-01T11:08:44.566Z,21.30
2019-03-01T11:09:44.644Z,26.50
2019-03-01T11:10:44.681Z,21.30
2019-03-01T11:11:44.737Z,23.70
2019-03-01T11:12:44.791Z,22.90
2019-03-01T11:13:44.850Z,22.90
2019-03-01T11:14:44.911Z,16.70
2019-03-01T11:15:44.961Z,16.30
2019-03-01T11:16:45.021Z,22.50
2019-03-01T11:17:45.077Z,18.70
2019-03-01T11:18:45.132Z,21.40
2019-03-01T11:19:45.190Z,22.90
2019-03-01T11:20:45.246Z,22.00
2019-03-01T11:21:45.303Z,20.10
2019-03-01T11:22:45.363Z,28.50
2019-03-01T11:23:45.416Z,28.90
2019-03-01T11:24:45.475Z,29.20
2019-03-01T11:25:45.531Z,30.70
2019-03-01T11:26:45.590Z,26.80
2019-03-01T11:27:45.645Z,22.00
2019-03-01T11:28:45.707Z,18.60
2019-03-01T11:29:45.761Z,18.90
2019-03-01T11:30:45.818Z,24.70
2019-03-01T11:31:45.874Z,24.20
2019-03-01T11:32:45.931Z,23.00
2019-03-01T11:33:45.990Z,20.40
2019-03-01T11:34:46.046Z,24.10
2019-03-01T11:35:46.103Z,27.20
2019-03-01T11:36:46.996Z,22.60
2019-03-01T11:37:46.220Z,27.30
2019-03-01T11:38:46.277Z,29.30
2019-03-01T11:39:46.335Z,27.00
2019-03-01T11:40:46.391Z,29.60
2019-03-01T11:41:46.451Z,31.00
2019-03-01T11:42:46.506Z,32.30
2019-03-01T11:43:46.564Z,34.50
2019-03-01T11:44:46.620Z,28.40
2019-03-01T11:45:46.678Z,29.10
2019-03-01T11:46:47.044Z,36.30
2019-03-01T11:47:46.796Z,38.60
2019-03-01T11:48:46.851Z,39.90
2019-03-01T11:49:46.911Z,43.50
2019-03-01T11:50:46.966Z,43.40
2019-03-01T11:51:47.022Z,39.20
2019-03-01T11:52:47.080Z,41.30
2019-03-01T11:53:47.139Z,36.50
2019-03-01T11:54:47.194Z,35.60
2019-03-01T11:55:47.250Z,35.00
2019-03-01T11:56:47.307Z,27.80
2019-03-01T11:57:47.366Z,32.40
2019-03-01T11:58:47.422Z,34.60
2019-03-01T11:59:47.478Z,27.00
2019-03-01T12:00:52.050Z,27.30
2019-03-01T12:01:47.592Z,30.10
2019-03-01T12:02:47.649Z,32.40
2019-03-01T12:03:47.705Z,29.70
2019-03-01T12:04:47.760Z,26.70
2019-03-01T12:05:47.817Z,28.40
2019-03-01T12:06:47.872Z,22.60
2019-03-01T12:07:47.931Z,29.70
2019-03-01T12:08:48.002Z,29.80
2019-03-01T12:09:48.046Z,27.90
2019-03-01T12:10:48.097Z,28.40
2019-03-01T12:11:48.152Z,26.80
2019-03-01T12:12:48.211Z,29.90
2019-03-01T12:13:48.264Z,27.20
2019-03-01T12:14:48.322Z,32.10
2019-03-01T12:15:48.377Z,28.60
2019-03-01T12:16:48.432Z,25.10
2019-03-01T12:17:48.523Z,25.80
2019-03-01T12:18:48.544Z,23.00
2019-03-01T12:19:48.598Z,30.90
2019-03-01T12:20:48.656Z,26.00
2019-03-01T12:21:48.725Z,26.90
2019-03-01T12:22:48.769Z,25.30
2019-03-01T12:23:48.826Z,27.00
2019-03-01T12:24:48.882Z,27.60
2019-03-01T12:25:48.937Z,23.50
2019-03-01T12:26:48.996Z,27.50
2019-03-01T12:27:49.054Z,26.00
2019-03-01T12:28:49.106Z,25.60
2019-03-01T12:29:49.164Z,24.30
2019-03-01T12:30:49.225Z,26.10
2019-03-01T12:31:49.278Z,23.20
2019-03-01T12:32:49.336Z,21.60
2019-03-01T12:33:49.393Z,24.80
2019-03-01T12:34:49.452Z,25.50
2019-03-01T12:35:49.508Z,23.90
2019-03-01T12:36:49.568Z,21.90
2019-03-01T12:37:49.637Z,26.00
2019-03-01T12:38:49.709Z,18.90
2019-03-01T12:39:49.761Z,21.90
2019-03-01T12:40:49.805Z,21.00
2019-03-01T12:41:49.857Z,23.80
2019-03-01T12:42:49.916Z,18.80
2019-03-01T12:43:49.974Z,19.30
2019-03-01T12:44:52.172Z,24.50
2019-03-01T12:45:50.088Z,21.60
2019-03-01T12:46:50.146Z,23.10
2019-03-01T12:47:50.206Z,20.50
2019-03-01T12:48:50.285Z,20.70
2019-03-01T12:49:50.319Z,17.00
2019-03-01T12:50:50.378Z,22.20
2019-03-01T12:51:50.434Z,18.70
2019-03-01T12:52:50.493Z,24.20
2019-03-01T12:53:50.554Z,18.70
2019-03-01T12:54:50.608Z,22.10
2019-03-01T12:55:50.665Z,19.80
2019-03-01T12:56:50.725Z,20.30
2019-03-01T12:57:50.779Z,20.10
2019-03-01T12:58:50.835Z,17.30
2019-03-01T12:59:50.893Z,18.00
2019-03-01T13:00:50.951Z,20.80
2019-03-01T13:01:51.009Z,20.70
2019-03-01T13:02:51.069Z,18.40
2019-03-01T13:03:51.122Z,19.50
2019-03-01T13:04:53.488Z,19.90
2019-03-01T13:05:51.236Z,18.50
2019-03-01T13:06:51.299Z,18.20
2019-03-01T13:07:51.351Z,19.00
2019-03-01T13:08:52.426Z,20.10
2019-03-01T13:09:51.466Z,19.30
2019-03-01T13:10:51.523Z,17.90
2019-03-01T13:11:52.133Z,19.40